Decoded Metar for KOSH (OSHKOSH in WI, USA) (IATA:OSH) | Meteo·Mobile Aviation Weather
aviador You're here:

KOSH Decoded Metar

OSHKOSH in WI, USA
Report Time2018-11-12 21:53:00
UTC Time2018-11-12 22:50:37
Flight Rules vfr VFR
Wind310° at 07 kt
W.Decomp.*RWY 31: 7.0 kt HW 0.4 kt RCW
RWY 27: 5.1 kt HW 4.8 kt RCW
RWY 36: 4.8 kt HW 5.1 kt LCW
RWY 04: 0.4 kt HW 7 kt LCW
W.Rank310° ranks 14
Current wind is below 310° avg. (9.1)
Visibility9999 m
Phenomena:N/A
Clouds:Overcast 037 Hf
Expected CloudBase > 3,200 ft AGL from Temp-Dew spread
Ceiling3,700 ft
Temp-3°C (ISA -16)
Dew Point-11°C (54% RH)
AAT-8.6°C
QNH1027 hPa
Density Alt-1,634 ft
Elevation814 ft
Report Wrong Elevation
Raw Report
KOSH 122153Z 31007KT 10SM OVC037 M03/M11 A3034 RMK AO2 SLP293
T10331106=

Extra information for KOSH:More info

Metar Taf Metar & Taf Last 4 Metars F.Rules Stats Wind Profile Meteogram Temp Stats Airport Information Weather charts Add Link Nearby VenuesMetar ALERT Operation Metar Decoded Social comments

AIRNAV info for KOSH
EAA Airventure